Terminal Aerodrome Forecast
Issued by NWS

Home | Current Version | Previous Version | Text Only | Print | Product List | Glossary On
Versions: 1 2 3 4 5 6 7 8 9 10 11 12 13 14 15 16 17 18 19 20 21 22 23 24 25 26 27 28 29 30 31 32 33 34 35 36 37 38 39 40 41 42 43 44 45 46 47 48 49 50
000
FTUS41 KBOX 221516 AAA
TAFACK
TAF AMD
KACK 221516Z 2215/2312 36008KT P6SM BKN200
     FM221900 15007KT P6SM FEW150
     FM230700 16007KT P6SM OVC050
     FM230800 09007KT 6SM BR VCSH OVC050
     FM231100 05009KT 6SM BR VCSH BKN050=

USA.gov is the U.S. government's official web portal to all federal, state and local government web resources and services.